createdAt,value
2023-05-12T00:00:43.787Z,27.63
2023-05-12T00:01:43.764Z,27.67
2023-05-12T00:02:43.930Z,27.67
2023-05-12T00:03:44.075Z,27.62
2023-05-12T00:04:43.796Z,27.66
2023-05-12T00:05:43.782Z,27.64
2023-05-12T00:06:43.772Z,27.67
2023-05-12T00:07:43.753Z,27.66
2023-05-12T00:08:43.752Z,27.67
2023-05-12T00:09:43.761Z,27.64
2023-05-12T00:10:43.760Z,27.64
2023-05-12T00:11:43.756Z,27.63
2023-05-12T00:12:43.753Z,27.63
2023-05-12T00:13:43.823Z,27.64
2023-05-12T00:14:43.762Z,27.66
2023-05-12T00:15:43.753Z,27.64
2023-05-12T00:16:43.825Z,27.67
2023-05-12T00:17:43.807Z,27.66
2023-05-12T00:18:43.787Z,27.66
2023-05-12T00:19:43.745Z,27.66
2023-05-12T00:20:43.746Z,27.65
2023-05-12T00:21:43.745Z,27.67
2023-05-12T00:22:43.748Z,27.60
2023-05-12T00:23:43.775Z,27.69
2023-05-12T00:24:43.751Z,27.66
2023-05-12T00:25:43.766Z,27.64
2023-05-12T00:26:43.773Z,27.64
2023-05-12T00:27:43.754Z,27.60
2023-05-12T00:28:43.761Z,27.62
2023-05-12T00:29:43.782Z,27.66
2023-05-12T00:30:43.783Z,27.69
2023-05-12T00:31:43.889Z,27.61
2023-05-12T00:32:43.781Z,27.63
2023-05-12T00:33:43.775Z,27.63
2023-05-12T00:34:43.763Z,27.54
2023-05-12T00:35:43.772Z,27.61
2023-05-12T00:36:43.784Z,27.63
2023-05-12T00:37:43.754Z,27.61
2023-05-12T00:38:43.769Z,27.59
2023-05-12T00:39:43.766Z,27.60
2023-05-12T00:40:43.769Z,27.61
2023-05-12T00:41:43.788Z,27.61
2023-05-12T00:42:43.781Z,27.61
2023-05-12T00:43:43.798Z,27.60
2023-05-12T00:44:43.785Z,27.63
2023-05-12T00:45:43.839Z,27.67
2023-05-12T00:46:43.792Z,27.67
2023-05-12T00:47:43.813Z,27.60
2023-05-12T00:48:43.794Z,27.66
2023-05-12T00:49:43.803Z,27.64
2023-05-12T00:50:43.797Z,27.69
2023-05-12T00:51:43.798Z,27.66
2023-05-12T00:52:43.788Z,27.65
2023-05-12T00:53:49.718Z,27.61
2023-05-12T00:54:44.765Z,27.61
2023-05-12T00:55:43.767Z,27.58
2023-05-12T00:56:43.766Z,27.65
2023-05-12T00:57:43.753Z,27.61
2023-05-12T00:58:43.751Z,27.67
2023-05-12T00:59:43.747Z,27.69
2023-05-12T01:00:43.738Z,27.65
2023-05-12T01:01:43.748Z,27.65
2023-05-12T01:02:43.757Z,27.63
2023-05-12T01:03:43.793Z,27.67
2023-05-12T01:04:43.695Z,27.64
2023-05-12T01:05:43.700Z,27.70
2023-05-12T01:06:43.679Z,27.63
2023-05-12T01:07:43.702Z,27.65
2023-05-12T01:08:43.677Z,27.61
2023-05-12T01:09:43.671Z,27.63
2023-05-12T01:10:43.677Z,27.61
2023-05-12T01:11:43.642Z,27.67
2023-05-12T01:12:43.640Z,27.71
2023-05-12T01:13:43.653Z,27.64
2023-05-12T01:14:43.619Z,27.64
2023-05-12T01:15:43.636Z,27.65
2023-05-12T01:16:43.699Z,27.68
2023-05-12T01:17:43.694Z,27.67
2023-05-12T01:18:43.682Z,27.65
2023-05-12T01:19:43.584Z,27.71
2023-05-12T01:20:43.603Z,27.68
2023-05-12T01:21:43.575Z,27.68
2023-05-12T01:22:43.588Z,27.69
2023-05-12T01:23:43.570Z,27.68
2023-05-12T01:24:43.557Z,27.69
2023-05-12T01:25:43.551Z,27.67
2023-05-12T01:26:43.556Z,27.68
2023-05-12T01:27:43.533Z,27.64
2023-05-12T01:28:43.523Z,27.67
2023-05-12T01:29:43.520Z,27.68
2023-05-12T01:30:43.575Z,27.71
2023-05-12T01:31:43.572Z,27.71
2023-05-12T01:32:43.555Z,27.65
2023-05-12T01:33:43.496Z,27.72
2023-05-12T01:34:43.496Z,27.72
2023-05-12T01:35:43.487Z,27.72
2023-05-12T01:36:43.498Z,27.72
2023-05-12T01:37:43.476Z,27.79
2023-05-12T01:38:43.448Z,27.69
2023-05-12T01:39:43.444Z,27.71
2023-05-12T01:40:43.435Z,27.72
2023-05-12T01:41:43.441Z,27.75
2023-05-12T01:42:43.428Z,27.74
2023-05-12T01:43:43.430Z,27.74
2023-05-12T01:44:43.424Z,27.72
2023-05-12T01:45:43.398Z,27.76
2023-05-12T01:46:43.427Z,27.76
2023-05-12T01:47:43.446Z,27.78
2023-05-12T01:48:43.371Z,27.74
2023-05-12T01:49:43.380Z,27.76
2023-05-12T01:50:43.399Z,27.78
2023-05-12T01:51:43.391Z,27.79
2023-05-12T01:52:43.398Z,27.78
2023-05-12T01:53:43.415Z,27.76
2023-05-12T01:54:43.415Z,27.80
2023-05-12T01:55:43.431Z,27.81
2023-05-12T01:56:43.427Z,27.80
2023-05-12T01:57:43.432Z,27.79
2023-05-12T01:58:43.446Z,27.75
2023-05-12T01:59:43.438Z,27.85
2023-05-12T02:00:43.437Z,27.85
2023-05-12T02:01:43.588Z,27.85
2023-05-12T02:02:43.586Z,27.80
2023-05-12T02:03:43.519Z,27.75
2023-05-12T02:04:43.468Z,27.87
2023-05-12T02:05:43.467Z,27.80
2023-05-12T02:06:43.497Z,27.83
2023-05-12T02:07:43.489Z,27.83
2023-05-12T02:08:43.504Z,27.82
2023-05-12T02:09:43.498Z,27.82
2023-05-12T02:10:43.506Z,27.83
2023-05-12T02:11:43.508Z,27.82
2023-05-12T02:12:43.525Z,27.86
2023-05-12T02:13:43.535Z,27.85
2023-05-12T02:14:43.549Z,27.80
2023-05-12T02:15:43.550Z,27.81
2023-05-12T02:16:43.681Z,27.89
2023-05-12T02:17:43.570Z,27.87
2023-05-12T02:18:43.611Z,27.82
2023-05-12T02:19:43.593Z,27.83
2023-05-12T02:20:43.593Z,27.83
2023-05-12T02:21:43.608Z,27.85
2023-05-12T02:22:43.607Z,27.82
2023-05-12T02:23:43.619Z,27.85
2023-05-12T02:24:43.638Z,27.84
2023-05-12T02:25:43.662Z,27.86
2023-05-12T02:26:43.643Z,27.86
2023-05-12T02:27:43.655Z,27.84
2023-05-12T02:28:43.682Z,27.82
2023-05-12T02:29:43.673Z,27.86
2023-05-12T02:30:43.696Z,27.89
2023-05-12T02:31:43.764Z,27.82
2023-05-12T02:32:43.782Z,27.86
2023-05-12T02:33:43.730Z,27.80
2023-05-12T02:34:43.736Z,27.84
2023-05-12T02:35:43.740Z,27.86
2023-05-12T02:36:43.770Z,27.86
2023-05-12T02:37:43.756Z,27.83
2023-05-12T02:38:43.767Z,27.82
2023-05-12T02:39:43.790Z,27.83
2023-05-12T02:40:43.811Z,27.80
2023-05-12T02:41:43.815Z,27.82
2023-05-12T02:42:43.881Z,27.86
2023-05-12T02:43:43.849Z,27.85
2023-05-12T02:44:43.857Z,27.86
2023-05-12T02:45:43.964Z,27.82
2023-05-12T02:46:43.882Z,27.83
2023-05-12T02:47:43.933Z,27.87
2023-05-12T02:48:43.909Z,27.85
2023-05-12T02:49:43.914Z,27.85
2023-05-12T02:50:43.928Z,27.83
2023-05-12T02:51:43.949Z,27.86
2023-05-12T02:52:43.962Z,27.82
2023-05-12T02:53:43.958Z,27.82
2023-05-12T02:54:43.969Z,27.82
2023-05-12T02:55:43.996Z,27.90
2023-05-12T02:56:43.998Z,27.80
2023-05-12T02:57:44.009Z,27.80
2023-05-12T02:58:44.029Z,27.82
2023-05-12T02:59:44.058Z,27.82
2023-05-12T03:00:44.056Z,27.83
2023-05-12T03:01:44.096Z,27.79
2023-05-12T03:02:44.153Z,27.83
2023-05-12T03:03:44.317Z,27.82
2023-05-12T03:04:44.098Z,27.82
2023-05-12T03:05:44.095Z,27.79
2023-05-12T03:06:44.111Z,27.82
2023-05-12T03:07:44.142Z,27.79
2023-05-12T03:08:44.182Z,27.83
2023-05-12T03:09:44.176Z,27.85
2023-05-12T03:10:44.176Z,27.79
2023-05-12T03:11:44.195Z,27.80
2023-05-12T03:12:44.203Z,27.82
2023-05-12T03:13:44.223Z,27.79
2023-05-12T03:14:44.238Z,27.82
2023-05-12T03:15:44.244Z,27.83
2023-05-12T03:16:44.294Z,27.79
2023-05-12T03:17:44.308Z,27.80
2023-05-12T03:18:44.348Z,27.83
2023-05-12T03:19:44.312Z,27.82
2023-05-12T03:20:44.312Z,27.79
2023-05-12T03:21:44.334Z,27.82
2023-05-12T03:22:44.366Z,27.79
2023-05-12T03:23:44.362Z,27.80
2023-05-12T03:24:44.388Z,27.79
2023-05-12T03:25:44.422Z,27.79
2023-05-12T03:26:44.413Z,27.80
2023-05-12T03:27:44.469Z,27.75
2023-05-12T03:28:44.448Z,27.76
2023-05-12T03:29:44.490Z,27.82
2023-05-12T03:30:44.489Z,27.80
2023-05-12T03:31:44.641Z,27.77
2023-05-12T03:32:44.525Z,27.80
2023-05-12T03:33:44.526Z,27.77
2023-05-12T03:34:44.547Z,27.77
2023-05-12T03:35:44.547Z,27.80
2023-05-12T03:36:44.548Z,27.76
2023-05-12T03:37:44.560Z,27.77
2023-05-12T03:38:44.574Z,27.79
2023-05-12T03:39:44.654Z,27.77
2023-05-12T03:40:44.591Z,27.79
2023-05-12T03:41:44.632Z,27.74
2023-05-12T03:42:44.617Z,27.77
2023-05-12T03:43:44.631Z,27.79
2023-05-12T03:44:44.677Z,27.79
2023-05-12T03:45:44.672Z,27.79
2023-05-12T03:46:44.830Z,27.76
2023-05-12T03:47:44.874Z,27.74
2023-05-12T03:48:44.746Z,27.74
2023-05-12T03:49:44.732Z,27.79
2023-05-12T03:50:44.741Z,27.76
2023-05-12T03:51:44.776Z,27.79
2023-05-12T03:52:44.794Z,27.79
2023-05-12T03:53:44.785Z,27.77
2023-05-12T03:54:44.805Z,27.79
2023-05-12T03:55:44.806Z,27.77
2023-05-12T03:56:44.835Z,27.80
2023-05-12T03:57:44.841Z,27.77
2023-05-12T03:58:44.856Z,27.79
2023-05-12T03:59:44.858Z,27.80
2023-05-12T04:00:44.876Z,27.80
2023-05-12T04:01:44.988Z,27.79
2023-05-12T04:02:45.035Z,27.83
2023-05-12T04:03:44.998Z,27.77
2023-05-12T04:04:44.920Z,27.81
2023-05-12T04:05:44.924Z,27.76
2023-05-12T04:06:44.972Z,27.80
2023-05-12T04:07:44.949Z,27.80
2023-05-12T04:08:44.983Z,27.77
2023-05-12T04:09:44.982Z,27.80
2023-05-12T04:10:44.998Z,27.79
2023-05-12T04:11:45.014Z,27.74
2023-05-12T04:12:45.039Z,27.81
2023-05-12T04:13:45.041Z,27.77
2023-05-12T04:14:45.053Z,27.76
2023-05-12T04:15:45.080Z,27.83
2023-05-12T04:16:45.114Z,27.77
2023-05-12T04:17:45.155Z,27.80
2023-05-12T04:18:45.125Z,27.77
2023-05-12T04:19:45.119Z,27.79
2023-05-12T04:20:45.140Z,27.77
2023-05-12T04:21:45.187Z,27.77
2023-05-12T04:22:45.164Z,27.73
2023-05-12T04:23:45.185Z,27.83
2023-05-12T04:24:45.212Z,27.77
2023-05-12T04:25:45.225Z,27.81
2023-05-12T04:26:45.247Z,27.79
2023-05-12T04:27:45.249Z,27.81
2023-05-12T04:28:45.263Z,27.76
2023-05-12T04:29:45.298Z,27.74
2023-05-12T04:30:45.299Z,27.81
2023-05-12T04:31:45.397Z,27.76
2023-05-12T04:32:45.385Z,27.81
2023-05-12T04:33:48.123Z,27.79
2023-05-12T04:34:45.362Z,27.77
2023-05-12T04:35:45.351Z,27.74
2023-05-12T04:36:45.360Z,27.74
2023-05-12T04:37:45.346Z,27.83
2023-05-12T04:38:45.320Z,27.80
2023-05-12T04:39:45.325Z,27.83
2023-05-12T04:40:45.306Z,27.80
2023-05-12T04:41:45.329Z,27.81
2023-05-12T04:42:45.331Z,27.79
2023-05-12T04:44:45.279Z,27.73
2023-05-12T04:45:45.367Z,27.73
2023-05-12T04:46:45.281Z,27.77
2023-05-12T04:47:45.314Z,27.77
2023-05-12T04:48:45.302Z,27.71
2023-05-12T04:49:45.261Z,27.77
2023-05-12T04:50:45.256Z,27.73
2023-05-12T04:51:45.270Z,27.77
2023-05-12T04:52:45.232Z,27.71
2023-05-12T04:53:45.230Z,27.76
2023-05-12T04:54:45.202Z,27.74
2023-05-12T04:55:45.198Z,27.74
2023-05-12T04:56:45.196Z,27.74
2023-05-12T04:57:45.199Z,27.76
2023-05-12T04:58:45.190Z,27.77
2023-05-12T04:59:45.174Z,27.78
2023-05-12T05:00:45.161Z,27.76
2023-05-12T05:01:45.250Z,27.77
2023-05-12T05:02:45.234Z,27.79
2023-05-12T05:03:45.267Z,27.77
2023-05-12T05:04:45.140Z,27.76
2023-05-12T05:05:45.125Z,27.73
2023-05-12T05:06:45.122Z,27.79
2023-05-12T05:07:45.125Z,27.80
2023-05-12T05:08:45.110Z,27.81
2023-05-12T05:09:45.092Z,27.73
2023-05-12T05:10:45.101Z,27.77
2023-05-12T05:11:45.090Z,27.76
2023-05-12T05:12:45.081Z,27.79
2023-05-12T05:13:45.088Z,27.77
2023-05-12T05:14:45.060Z,27.80
2023-05-12T05:15:45.094Z,27.80
2023-05-12T05:16:45.038Z,27.82
2023-05-12T05:17:45.048Z,27.83
2023-05-12T05:18:45.050Z,27.80
2023-05-12T05:19:55.218Z,27.77
2023-05-12T05:20:54.657Z,27.76
2023-05-12T05:21:46.005Z,27.73
2023-05-12T05:22:44.994Z,27.80
2023-05-12T05:23:44.994Z,27.79
2023-05-12T05:24:44.984Z,27.77
2023-05-12T05:25:44.975Z,27.79
2023-05-12T05:26:44.971Z,27.76
2023-05-12T05:27:45.205Z,27.70
2023-05-12T05:28:44.964Z,27.73
2023-05-12T05:29:44.927Z,27.77
2023-05-12T05:30:44.938Z,27.78
2023-05-12T05:31:45.075Z,28.21
2023-05-12T05:32:44.939Z,28.17
2023-05-12T05:33:44.933Z,28.07
2023-05-12T05:34:44.906Z,28.27
2023-05-12T05:35:44.884Z,28.53
2023-05-12T05:36:44.879Z,28.54
2023-05-12T05:37:44.878Z,28.70
2023-05-12T05:38:44.883Z,28.89
2023-05-12T05:39:44.875Z,29.40
2023-05-12T05:40:52.885Z,29.26
2023-05-12T05:41:45.870Z,29.54
2023-05-12T05:42:44.895Z,29.72
2023-05-12T05:43:44.848Z,29.75
2023-05-12T05:44:44.850Z,29.89
2023-05-12T05:45:44.844Z,30.00
2023-05-12T05:46:44.868Z,30.08
2023-05-12T05:47:45.244Z,30.34
2023-05-12T05:48:44.803Z,30.36
2023-05-12T05:49:44.838Z,30.58
2023-05-12T05:50:44.818Z,30.84
2023-05-12T05:51:44.784Z,30.74
2023-05-12T05:52:44.805Z,31.06
2023-05-12T05:53:44.774Z,30.95
2023-05-12T05:54:44.807Z,30.87
2023-05-12T05:55:44.750Z,30.94
2023-05-12T05:56:44.763Z,31.03
2023-05-12T05:57:44.754Z,31.10
2023-05-12T05:58:44.734Z,31.14
2023-05-12T05:59:44.741Z,31.14
2023-05-12T06:00:44.744Z,31.34
2023-05-12T06:01:44.769Z,31.87
2023-05-12T06:02:44.920Z,31.47
2023-05-12T06:03:44.856Z,31.53
2023-05-12T06:04:44.804Z,31.47
2023-05-12T06:05:44.832Z,31.43
2023-05-12T06:06:44.829Z,31.37
2023-05-12T06:07:44.887Z,31.36
2023-05-12T06:08:44.908Z,31.26
2023-05-12T06:09:44.964Z,31.22
2023-05-12T06:10:44.995Z,31.21
2023-05-12T06:11:45.045Z,31.21
2023-05-12T06:12:45.059Z,31.47
2023-05-12T06:13:45.144Z,31.39
2023-05-12T06:14:45.149Z,31.59
2023-05-12T06:15:45.165Z,31.71
2023-05-12T06:16:45.419Z,31.44
2023-05-12T06:17:45.356Z,31.37
2023-05-12T06:18:45.342Z,31.52
2023-05-12T06:19:45.420Z,31.44
2023-05-12T06:20:45.465Z,31.32
2023-05-12T06:21:45.510Z,31.34
2023-05-12T06:22:45.573Z,31.37
2023-05-12T06:23:45.677Z,31.19
2023-05-12T06:24:45.892Z,31.30
2023-05-12T06:25:45.813Z,31.19
2023-05-12T06:26:45.886Z,31.21
2023-05-12T06:27:45.904Z,31.16
2023-05-12T06:28:45.966Z,31.16
2023-05-12T06:29:46.030Z,31.10
2023-05-12T06:30:46.089Z,31.08
2023-05-12T06:31:46.214Z,31.06
2023-05-12T06:32:46.239Z,31.06
2023-05-12T06:33:46.274Z,30.73
2023-05-12T06:34:46.302Z,30.68
2023-05-12T06:35:46.377Z,30.70
2023-05-12T06:36:46.421Z,31.07
2023-05-12T06:37:46.504Z,30.97
2023-05-12T06:38:46.554Z,30.86
2023-05-12T06:39:46.619Z,30.99
2023-05-12T06:40:46.665Z,30.91
2023-05-12T06:41:46.714Z,30.83
2023-05-12T06:42:46.764Z,30.62
2023-05-12T06:43:46.817Z,30.67
2023-05-12T06:44:46.886Z,30.69
2023-05-12T06:45:46.934Z,30.74
2023-05-12T06:46:47.067Z,30.70
2023-05-12T06:47:47.351Z,30.72
2023-05-12T06:48:47.091Z,30.67
2023-05-12T06:49:47.115Z,30.76
2023-05-12T06:50:47.177Z,30.75
2023-05-12T06:51:47.233Z,30.71
2023-05-12T06:52:47.249Z,30.71
2023-05-12T06:53:47.300Z,30.60
2023-05-12T06:54:47.325Z,30.53
2023-05-12T06:55:47.370Z,30.68
2023-05-12T06:56:47.480Z,30.70
2023-05-12T06:57:47.749Z,30.54
2023-05-12T06:58:47.465Z,30.63
2023-05-12T06:59:47.514Z,30.56
2023-05-12T07:00:47.554Z,30.63
2023-05-12T07:01:47.622Z,30.62
2023-05-12T07:02:47.669Z,30.34
2023-05-12T07:03:47.714Z,30.42
2023-05-12T07:04:47.728Z,30.46
2023-05-12T07:05:47.741Z,30.58
2023-05-12T07:06:47.772Z,30.58
2023-05-12T07:07:47.799Z,30.58
2023-05-12T07:08:47.813Z,30.63
2023-05-12T07:09:47.851Z,30.43
2023-05-12T07:10:47.895Z,30.45
2023-05-12T07:11:47.934Z,30.54
2023-05-12T07:12:48.104Z,30.61
2023-05-12T07:13:47.979Z,30.56
2023-05-12T07:14:48.029Z,30.54
2023-05-12T07:15:48.074Z,30.58
2023-05-12T07:16:48.078Z,30.61
2023-05-12T07:17:48.435Z,30.68
2023-05-12T07:18:48.220Z,30.75
2023-05-12T07:19:48.199Z,30.54
2023-05-12T07:20:48.235Z,30.68
2023-05-12T07:21:48.285Z,30.66
2023-05-12T07:22:48.317Z,30.71
2023-05-12T07:23:48.326Z,30.68
2023-05-12T07:24:48.361Z,30.64
2023-05-12T07:25:48.404Z,30.56
2023-05-12T07:26:48.448Z,30.10
2023-05-12T07:27:48.780Z,30.13
2023-05-12T07:28:48.511Z,29.17
2023-05-12T07:29:48.574Z,29.73
2023-05-12T07:30:48.629Z,29.75
2023-05-12T07:31:48.882Z,29.84
2023-05-12T07:32:48.741Z,29.80
2023-05-12T07:33:49.262Z,29.72
2023-05-12T07:34:48.856Z,29.55
2023-05-12T07:35:48.944Z,29.64
2023-05-12T07:36:48.940Z,29.59
2023-05-12T07:37:49.035Z,29.35
2023-05-12T07:38:49.265Z,29.72
2023-05-12T07:39:49.079Z,29.74
2023-05-12T07:40:49.117Z,29.99
2023-05-12T07:41:49.134Z,30.11
2023-05-12T07:42:49.278Z,30.09
2023-05-12T07:43:49.232Z,30.07
2023-05-12T07:44:49.263Z,30.15
2023-05-12T07:45:49.290Z,30.20
2023-05-12T07:46:49.351Z,30.17
2023-05-12T07:47:49.405Z,30.12
2023-05-12T07:48:49.381Z,30.20
2023-05-12T07:49:49.426Z,30.23
2023-05-12T07:50:49.437Z,30.27
2023-05-12T07:51:49.484Z,30.20
2023-05-12T07:52:49.775Z,30.28
2023-05-12T07:53:49.526Z,30.22
2023-05-12T07:54:49.532Z,30.10
2023-05-12T07:55:49.551Z,30.24
2023-05-12T07:56:49.578Z,30.30
2023-05-12T07:57:49.781Z,30.36
2023-05-12T07:58:49.760Z,30.46
2023-05-12T07:59:49.637Z,30.33
2023-05-12T08:00:49.730Z,30.33
2023-05-12T08:01:49.716Z,30.31
2023-05-12T08:02:49.933Z,30.30
2023-05-12T08:03:49.865Z,30.29
2023-05-12T08:04:49.711Z,30.32
2023-05-12T08:05:49.735Z,30.40
2023-05-12T08:06:49.736Z,30.38
2023-05-12T08:07:49.753Z,30.38
2023-05-12T08:08:49.760Z,30.44
2023-05-12T08:09:49.764Z,30.42
2023-05-12T08:10:49.781Z,30.29
2023-05-12T08:11:51.443Z,30.22
2023-05-12T08:12:49.802Z,30.25
2023-05-12T08:13:49.840Z,29.93
2023-05-12T08:14:49.826Z,30.08
2023-05-12T08:15:49.870Z,30.21
2023-05-12T08:16:49.929Z,30.21
2023-05-12T08:17:49.940Z,30.21
2023-05-12T08:18:49.921Z,30.29
2023-05-12T08:19:49.920Z,30.36
2023-05-12T08:20:49.916Z,30.02
2023-05-12T08:21:49.933Z,29.96
2023-05-12T08:22:49.949Z,30.00
2023-05-12T08:23:50.338Z,29.93
2023-05-12T08:24:49.962Z,30.07
2023-05-12T08:25:49.996Z,29.77
2023-05-12T08:26:49.999Z,29.25
2023-05-12T08:27:49.985Z,29.14
2023-05-12T08:28:50.003Z,28.35
2023-05-12T08:29:50.036Z,27.98
2023-05-12T08:30:50.100Z,28.27
2023-05-12T08:31:50.117Z,28.10
2023-05-12T08:32:50.263Z,28.18
2023-05-12T08:33:59.450Z,28.68
2023-05-12T08:34:51.222Z,28.15
2023-05-12T08:35:50.216Z,26.34
2023-05-12T08:36:50.207Z,27.24
2023-05-12T08:37:50.202Z,27.80
2023-05-12T08:38:50.204Z,28.15
2023-05-12T08:39:50.187Z,28.61
2023-05-12T08:40:50.188Z,29.09
2023-05-12T08:41:50.197Z,29.25
2023-05-12T08:42:50.173Z,29.30
2023-05-12T08:43:50.310Z,29.58
2023-05-12T08:44:50.216Z,29.64
2023-05-12T08:45:50.257Z,29.98
2023-05-12T08:46:50.347Z,30.00
2023-05-12T08:47:50.380Z,30.12
2023-05-12T08:48:50.399Z,30.18
2023-05-12T08:49:52.399Z,30.28
2023-05-12T08:50:50.435Z,30.42
2023-05-12T08:51:57.772Z,30.61
2023-05-12T08:52:51.476Z,30.68
2023-05-12T08:53:50.456Z,30.72
2023-05-12T08:54:55.883Z,30.74
2023-05-12T08:57:09.008Z,30.63
2023-05-12T08:57:50.429Z,30.76
2023-05-12T08:58:50.794Z,30.81
2023-05-12T08:59:50.414Z,31.00
2023-05-12T09:00:50.459Z,30.97
2023-05-12T09:01:50.464Z,30.91
2023-05-12T09:02:54.056Z,30.87
2023-05-12T09:03:50.813Z,30.95
2023-05-12T09:04:50.527Z,30.99
2023-05-12T09:05:50.360Z,30.83
2023-05-12T09:06:50.354Z,30.98
2023-05-12T09:07:50.369Z,31.01
2023-05-12T09:08:50.819Z,31.07
2023-05-12T09:09:50.359Z,31.16
2023-05-12T09:10:50.371Z,31.21
2023-05-12T09:11:50.316Z,30.97
2023-05-12T09:12:50.334Z,31.12
2023-05-12T09:13:50.796Z,30.66
2023-05-12T09:14:50.294Z,29.70
2023-05-12T09:15:50.370Z,30.72
2023-05-12T09:16:50.375Z,29.89
2023-05-12T09:17:50.363Z,29.65
2023-05-12T09:18:50.327Z,30.04
2023-05-12T09:19:50.268Z,30.16
2023-05-12T09:20:50.324Z,30.36
2023-05-12T09:21:50.274Z,30.32
2023-05-12T09:22:50.233Z,30.42
2023-05-12T09:23:50.306Z,29.77
2023-05-12T09:24:50.241Z,29.73
2023-05-12T09:25:50.259Z,30.09
2023-05-12T09:26:50.280Z,28.11
2023-05-12T09:27:50.221Z,27.55
2023-05-12T09:28:50.210Z,27.12
2023-05-12T09:29:58.577Z,26.88
2023-05-12T09:30:51.195Z,27.42
2023-05-12T09:31:50.261Z,27.76
2023-05-12T09:32:50.244Z,27.99
2023-05-12T09:33:50.316Z,28.06
2023-05-12T09:34:50.174Z,28.23
2023-05-12T09:35:50.159Z,28.24
2023-05-12T09:36:50.132Z,28.17
2023-05-12T09:37:50.137Z,28.26
2023-05-12T09:38:50.302Z,28.23
2023-05-12T09:39:50.130Z,28.22
2023-05-12T09:40:50.129Z,28.21
2023-05-12T09:41:50.109Z,28.23
2023-05-12T09:42:50.121Z,28.22
2023-05-12T09:43:50.320Z,28.04
2023-05-12T09:44:50.104Z,27.71
2023-05-12T09:45:50.207Z,27.63
2023-05-12T09:46:50.100Z,27.85
2023-05-12T09:47:50.158Z,28.02
2023-05-12T09:48:50.325Z,27.91
2023-05-12T09:49:50.161Z,27.90
2023-05-12T09:50:50.182Z,27.87
2023-05-12T09:51:50.209Z,27.94
2023-05-12T09:52:50.282Z,28.05
2023-05-12T09:53:50.361Z,27.90
2023-05-12T09:54:50.264Z,27.93
2023-05-12T09:55:50.261Z,27.93
2023-05-12T09:56:50.269Z,27.92
2023-05-12T09:57:50.295Z,27.56
2023-05-12T09:58:50.342Z,27.65
2023-05-12T09:59:50.310Z,27.50
2023-05-12T10:01:12.854Z,27.65
2023-05-12T10:01:51.358Z,27.94
2023-05-12T10:02:50.413Z,28.07
2023-05-12T10:03:50.355Z,28.27
2023-05-12T10:04:50.351Z,28.23
2023-05-12T10:05:50.288Z,28.21
2023-05-12T10:06:50.286Z,28.22
2023-05-12T10:07:50.287Z,28.25
2023-05-12T10:08:50.373Z,28.19
2023-05-12T10:09:50.292Z,28.15
2023-05-12T10:10:50.275Z,28.15
2023-05-12T10:11:52.811Z,28.06
2023-05-12T10:12:50.253Z,28.01
2023-05-12T10:13:50.226Z,27.92
2023-05-12T10:14:50.341Z,28.01
2023-05-12T10:15:50.205Z,27.93
2023-05-12T10:16:50.302Z,27.90
2023-05-12T10:17:52.959Z,27.87
2023-05-12T10:18:50.369Z,27.85
2023-05-12T10:19:50.202Z,27.80
2023-05-12T10:20:50.192Z,27.73
2023-05-12T10:21:50.198Z,27.57
2023-05-12T10:22:50.192Z,27.52
2023-05-12T10:23:50.363Z,27.86
2023-05-12T10:24:50.170Z,27.97
2023-05-12T10:25:50.150Z,27.95
2023-05-12T10:26:50.143Z,28.25
2023-05-12T10:27:50.169Z,28.39
2023-05-12T10:28:50.118Z,28.42
2023-05-12T10:29:51.400Z,28.43
2023-05-12T10:30:50.096Z,28.42
2023-05-12T10:31:50.268Z,28.45
2023-05-12T10:32:50.131Z,28.46
2023-05-12T10:33:50.106Z,28.83
2023-05-12T10:34:50.066Z,29.14
2023-05-12T10:35:50.064Z,29.06
2023-05-12T10:36:50.095Z,29.14
2023-05-12T10:37:50.057Z,29.13
2023-05-12T10:38:50.068Z,29.15
2023-05-12T10:39:50.051Z,29.18
2023-05-12T10:40:50.065Z,29.24
2023-05-12T10:41:51.093Z,29.20
2023-05-12T10:42:50.028Z,29.24
2023-05-12T10:43:50.049Z,29.39
2023-05-12T10:44:49.996Z,29.48
2023-05-12T10:45:50.129Z,29.48
2023-05-12T10:46:50.077Z,29.58
2023-05-12T10:47:50.067Z,29.66
2023-05-12T10:48:49.999Z,30.21
2023-05-12T10:49:49.972Z,30.26
2023-05-12T10:50:49.980Z,30.53
2023-05-12T10:51:49.961Z,30.74
2023-05-12T10:52:49.948Z,30.73
2023-05-12T10:53:54.389Z,30.81
2023-05-12T10:54:49.959Z,30.97
2023-05-12T10:55:50.387Z,30.98
2023-05-12T10:56:50.165Z,31.00
2023-05-12T10:57:50.150Z,31.00
2023-05-12T10:58:50.392Z,31.01
2023-05-12T10:59:50.492Z,31.20
2023-05-12T11:00:50.528Z,31.45
2023-05-12T11:01:50.100Z,31.40
2023-05-12T11:02:50.262Z,31.39
2023-05-12T11:03:51.107Z,31.49
2023-05-12T11:04:50.501Z,31.61
2023-05-12T11:05:50.573Z,31.72
2023-05-12T11:06:50.372Z,31.76
2023-05-12T11:07:50.698Z,31.80
2023-05-12T11:08:50.709Z,31.94
2023-05-12T11:09:58.299Z,32.07
2023-05-12T11:10:51.444Z,32.06
2023-05-12T11:11:50.473Z,32.09
2023-05-12T11:12:50.390Z,31.92
2023-05-12T11:13:50.376Z,31.93
2023-05-12T11:14:50.860Z,31.93
2023-05-12T11:15:50.358Z,31.86
2023-05-12T11:16:50.339Z,31.93
2023-05-12T11:17:50.396Z,31.14
2023-05-12T11:18:50.371Z,31.55
2023-05-12T11:19:50.860Z,31.64
2023-05-12T11:20:50.378Z,31.64
2023-05-12T11:21:50.394Z,31.71
2023-05-12T11:22:50.417Z,31.65
2023-05-12T11:23:50.433Z,31.57
2023-05-12T11:24:50.860Z,31.52
2023-05-12T11:25:50.537Z,31.52
2023-05-12T11:26:50.519Z,31.41
2023-05-12T11:27:50.528Z,31.40
2023-05-12T11:28:50.533Z,31.26
2023-05-12T11:29:50.528Z,31.22
2023-05-12T11:30:51.941Z,31.18
2023-05-12T11:31:50.542Z,31.10
2023-05-12T11:32:50.522Z,31.01
2023-05-12T11:33:58.532Z,30.97
2023-05-12T11:34:51.487Z,30.93
2023-05-12T11:35:50.482Z,30.90
2023-05-12T11:36:50.459Z,30.83
2023-05-12T11:37:50.455Z,30.77
2023-05-12T11:38:50.460Z,30.67
2023-05-12T11:39:50.437Z,30.63
2023-05-12T11:40:50.436Z,30.57
2023-05-12T11:41:54.591Z,30.54
2023-05-12T11:42:51.524Z,30.48
2023-05-12T11:43:50.429Z,30.44
2023-05-12T11:44:50.562Z,30.38
2023-05-12T11:45:50.564Z,30.33
2023-05-12T11:46:50.384Z,30.28
2023-05-12T11:47:50.457Z,30.22
2023-05-12T11:48:50.387Z,30.22
2023-05-12T11:49:50.391Z,30.13
2023-05-12T11:50:50.362Z,30.04
2023-05-12T11:51:50.347Z,29.99
2023-05-12T11:52:50.340Z,29.99
2023-05-12T11:53:50.354Z,29.96
2023-05-12T11:54:50.346Z,29.92
2023-05-12T11:55:50.323Z,29.84
2023-05-12T11:56:50.318Z,29.77
2023-05-12T11:57:50.338Z,29.70
2023-05-12T11:58:50.310Z,29.70
2023-05-12T11:59:50.296Z,29.70
2023-05-12T12:00:50.322Z,29.68
2023-05-12T12:01:50.301Z,29.63
2023-05-12T12:02:50.415Z,29.64
2023-05-12T12:03:50.414Z,29.61
2023-05-12T12:04:50.372Z,29.59
2023-05-12T12:05:50.277Z,29.53
2023-05-12T12:06:50.269Z,29.51
2023-05-12T12:07:50.294Z,29.42
2023-05-12T12:08:50.310Z,29.44
2023-05-12T12:09:50.314Z,29.44
2023-05-12T12:10:50.315Z,29.37
2023-05-12T12:11:50.339Z,29.41
2023-05-12T12:12:50.355Z,29.38
2023-05-12T12:13:50.348Z,29.30
2023-05-12T12:14:50.392Z,29.23
2023-05-12T12:15:50.424Z,29.28
2023-05-12T12:16:50.424Z,29.26
2023-05-12T12:17:50.476Z,28.73
2023-05-12T12:18:50.545Z,29.09
2023-05-12T12:19:50.458Z,29.20
2023-05-12T12:20:50.511Z,29.61
2023-05-12T12:21:50.508Z,29.65
2023-05-12T12:22:50.530Z,30.01
2023-05-12T12:23:51.684Z,29.27
2023-05-12T12:24:50.573Z,29.00
2023-05-12T12:25:50.585Z,28.68
2023-05-12T12:26:50.622Z,31.53
2023-05-12T12:27:50.622Z,31.70
2023-05-12T12:28:50.667Z,33.37
2023-05-12T12:29:50.687Z,32.35
2023-05-12T12:30:50.698Z,31.70
2023-05-12T12:31:50.803Z,31.59
2023-05-12T12:32:50.809Z,31.57
2023-05-12T12:33:50.803Z,32.61
2023-05-12T12:34:50.838Z,33.05
2023-05-12T12:35:50.862Z,33.60
2023-05-12T12:36:50.886Z,33.96
2023-05-12T12:37:50.907Z,33.17
2023-05-12T12:38:50.957Z,34.13
2023-05-12T12:39:50.980Z,33.20
2023-05-12T12:40:51.002Z,32.90
2023-05-12T12:41:51.041Z,32.58
2023-05-12T12:42:51.071Z,32.30
2023-05-12T12:43:51.107Z,32.50
2023-05-12T12:44:51.110Z,32.78
2023-05-12T12:45:51.156Z,32.79
2023-05-12T12:46:51.258Z,32.60
2023-05-12T12:47:51.236Z,32.65
2023-05-12T12:48:51.226Z,32.68
2023-05-12T12:49:51.248Z,32.78
2023-05-12T12:50:51.242Z,32.89
2023-05-12T12:51:51.279Z,32.95
2023-05-12T12:52:51.372Z,32.97
2023-05-12T12:53:51.333Z,33.02
2023-05-12T12:54:51.354Z,33.01